Belmullet, Ireland
Current Conditions -  °F | °C
As of 12:30 PM on Monday 24 Nov 2014 (Local Time) from EIKN Reporting Station
Broken Clouds Broken Clouds  
Wind Chill:   Ceiling: 1200
Heat Index:   Visibility: 6mi
Dew Point:   Wind: 12mph
Humidity: 87%   Direction: 170°S
Pressure: 30.18"   Gusts: NA
Location:  54.22°N, 10.01°W
Report Text: EIKN 241230Z 17010KT 9999 BKN012 BKN030 BKN100 06/04 Q1022 NOSIG
Loading
Personal Weather Stations






























Interactive Weather Map New forecast layout! Learn more

10-Day Weather Forecast

Advertisements
Track Severe Weather on mobile